sensor_id;sensor_type;location;lat;lon;timestamp;pressure;altitude;pressure_sealevel;temperature;humidity
19128;BME280;9696;53.686;10.094;2023-06-26T00:00:21;101248.69;;;19.42;100.00
19128;BME280;9696;53.686;10.094;2023-06-26T00:02:50;101257.31;;;19.44;100.00
19128;BME280;9696;53.686;10.094;2023-06-26T00:05:19;101246.03;;;19.42;100.00
19128;BME280;9696;53.686;10.094;2023-06-26T00:07:49;101249.50;;;19.43;100.00
19128;BME280;9696;53.686;10.094;2023-06-26T00:10:18;101244.03;;;19.36;100.00
19128;BME280;9696;53.686;10.094;2023-06-26T00:12:48;101241.91;;;19.32;100.00
19128;BME280;9696;53.686;10.094;2023-06-26T00:15:17;101234.75;;;19.32;100.00
19128;BME280;9696;53.686;10.094;2023-06-26T00:17:47;101236.66;;;19.23;100.00
19128;BME280;9696;53.686;10.094;2023-06-26T00:20:18;101234.00;;;19.23;100.00
19128;BME280;9696;53.686;10.094;2023-06-26T00:22:48;101230.66;;;19.21;100.00
19128;BME280;9696;53.686;10.094;2023-06-26T00:25:18;101237.03;;;19.12;100.00
19128;BME280;9696;53.686;10.094;2023-06-26T00:27:47;101238.22;;;19.10;100.00
19128;BME280;9696;53.686;10.094;2023-06-26T00:30:16;101241.41;;;19.05;100.00
19128;BME280;9696;53.686;10.094;2023-06-26T00:32:47;101245.88;;;19.05;100.00
19128;BME280;9696;53.686;10.094;2023-06-26T00:35:16;101244.31;;;18.96;100.00
19128;BME280;9696;53.686;10.094;2023-06-26T00:37:45;101239.97;;;18.95;100.00
19128;BME280;9696;53.686;10.094;2023-06-26T00:40:14;101235.84;;;18.92;100.00
19128;BME280;9696;53.686;10.094;2023-06-26T00:42:44;101235.34;;;18.89;100.00
19128;BME280;9696;53.686;10.094;2023-06-26T00:45:15;101236.69;;;18.84;100.00
19128;BME280;9696;53.686;10.094;2023-06-26T00:47:58;101233.03;;;18.86;100.00
19128;BME280;9696;53.686;10.094;2023-06-26T00:50:28;101230.25;;;18.79;100.00
19128;BME280;9696;53.686;10.094;2023-06-26T00:52:57;101225.78;;;18.79;100.00
19128;BME280;9696;53.686;10.094;2023-06-26T00:55:28;101228.09;;;18.74;100.00
19128;BME280;9696;53.686;10.094;2023-06-26T00:57:58;101221.84;;;18.67;100.00
19128;BME280;9696;53.686;10.094;2023-06-26T01:00:29;101217.16;;;18.69;100.00
19128;BME280;9696;53.686;10.094;2023-06-26T01:02:59;101221.84;;;18.67;100.00
19128;BME280;9696;53.686;10.094;2023-06-26T01:05:30;101224.84;;;18.64;100.00
19128;BME280;9696;53.686;10.094;2023-06-26T01:07:59;101227.50;;;18.64;100.00
19128;BME280;9696;53.686;10.094;2023-06-26T01:10:29;101227.16;;;18.67;100.00
19128;BME280;9696;53.686;10.094;2023-06-26T01:13:00;101218.66;;;18.72;100.00
19128;BME280;9696;53.686;10.094;2023-06-26T01:15:29;101215.47;;;18.76;100.00
19128;BME280;9696;53.686;10.094;2023-06-26T01:18:00;101214.19;;;18.72;100.00
19128;BME280;9696;53.686;10.094;2023-06-26T01:20:32;101211.69;;;18.71;100.00
19128;BME280;9696;53.686;10.094;2023-06-26T01:23:12;101210.22;;;18.68;100.00
19128;BME280;9696;53.686;10.094;2023-06-26T01:25:56;101207.44;;;18.84;100.00
19128;BME280;9696;53.686;10.094;2023-06-26T01:28:33;101198.72;;;18.99;100.00
19128;BME280;9696;53.686;10.094;2023-06-26T01:31:03;101186.50;;;19.12;100.00
19128;BME280;9696;53.686;10.094;2023-06-26T01:33:33;101184.91;;;19.26;100.00
19128;BME280;9696;53.686;10.094;2023-06-26T01:36:03;101177.09;;;19.24;100.00
19128;BME280;9696;53.686;10.094;2023-06-26T01:38:35;101179.13;;;19.22;100.00
19128;BME280;9696;53.686;10.094;2023-06-26T01:41:05;101167.50;;;19.23;100.00
19128;BME280;9696;53.686;10.094;2023-06-26T01:43:49;101171.78;;;19.24;100.00
19128;BME280;9696;53.686;10.094;2023-06-26T01:46:27;101160.88;;;19.19;100.00
19128;BME280;9696;53.686;10.094;2023-06-26T01:49:06;101153.22;;;19.16;100.00
19128;BME280;9696;53.686;10.094;2023-06-26T01:51:41;101156.44;;;19.12;100.00
19128;BME280;9696;53.686;10.094;2023-06-26T01:54:14;101145.50;;;19.07;100.00
19128;BME280;9696;53.686;10.094;2023-06-26T01:56:48;101146.84;;;19.03;100.00
19128;BME280;9696;53.686;10.094;2023-06-26T01:59:21;101143.94;;;19.12;100.00
19128;BME280;9696;53.686;10.094;2023-06-26T02:01:53;101141.06;;;19.22;100.00
19128;BME280;9696;53.686;10.094;2023-06-26T02:04:22;101127.22;;;19.26;100.00
19128;BME280;9696;53.686;10.094;2023-06-26T02:06:52;101124.28;;;19.36;100.00
19128;BME280;9696;53.686;10.094;2023-06-26T02:09:22;101119.53;;;19.32;100.00
19128;BME280;9696;53.686;10.094;2023-06-26T02:11:52;101119.34;;;19.33;100.00
19128;BME280;9696;53.686;10.094;2023-06-26T02:14:22;101112.84;;;19.36;100.00
19128;BME280;9696;53.686;10.094;2023-06-26T02:16:51;101114.47;;;19.37;100.00
19128;BME280;9696;53.686;10.094;2023-06-26T02:19:20;101109.81;;;19.39;100.00
19128;BME280;9696;53.686;10.094;2023-06-26T02:21:50;101106.97;;;19.40;100.00
19128;BME280;9696;53.686;10.094;2023-06-26T02:24:19;101113.09;;;19.41;100.00
19128;BME280;9696;53.686;10.094;2023-06-26T02:26:48;101111.16;;;19.43;100.00
19128;BME280;9696;53.686;10.094;2023-06-26T02:29:18;101115.78;;;19.41;100.00
19128;BME280;9696;53.686;10.094;2023-06-26T02:31:48;101104.13;;;19.42;100.00
19128;BME280;9696;53.686;10.094;2023-06-26T02:34:17;101098.97;;;19.40;100.00
19128;BME280;9696;53.686;10.094;2023-06-26T02:36:47;101097.59;;;19.29;100.00
19128;BME280;9696;53.686;10.094;2023-06-26T02:39:16;101098.88;;;19.34;100.00
19128;BME280;9696;53.686;10.094;2023-06-26T02:41:46;101097.13;;;19.26;100.00
19128;BME280;9696;53.686;10.094;2023-06-26T02:44:16;101091.06;;;19.32;100.00
19128;BME280;9696;53.686;10.094;2023-06-26T02:46:45;101084.75;;;19.33;100.00
19128;BME280;9696;53.686;10.094;2023-06-26T02:49:16;101088.41;;;19.32;100.00
19128;BME280;9696;53.686;10.094;2023-06-26T02:51:49;101089.69;;;19.36;100.00
19128;BME280;9696;53.686;10.094;2023-06-26T02:54:26;101087.25;;;19.35;100.00
19128;BME280;9696;53.686;10.094;2023-06-26T02:57:01;101082.00;;;19.26;100.00
19128;BME280;9696;53.686;10.094;2023-06-26T02:59:32;101081.78;;;19.28;100.00
19128;BME280;9696;53.686;10.094;2023-06-26T03:02:01;101080.63;;;19.30;100.00
19128;BME280;9696;53.686;10.094;2023-06-26T03:04:40;101084.75;;;19.33;100.00
19128;BME280;9696;53.686;10.094;2023-06-26T03:07:13;101070.97;;;19.29;100.00
19128;BME280;9696;53.686;10.094;2023-06-26T03:09:43;101073.66;;;19.29;100.00
19128;BME280;9696;53.686;10.094;2023-06-26T03:12:13;101073.66;;;19.29;100.00
19128;BME280;9696;53.686;10.094;2023-06-26T03:14:42;101060.25;;;19.23;100.00
19128;BME280;9696;53.686;10.094;2023-06-26T03:17:14;101072.06;;;19.20;100.00
19128;BME280;9696;53.686;10.094;2023-06-26T03:19:47;101068.94;;;19.17;100.00
19128;BME280;9696;53.686;10.094;2023-06-26T03:22:22;101070.69;;;19.24;100.00
19128;BME280;9696;53.686;10.094;2023-06-26T03:24:51;101063.06;;;19.21;100.00
19128;BME280;9696;53.686;10.094;2023-06-26T03:27:20;101061.06;;;19.23;100.00
19128;BME280;9696;53.686;10.094;2023-06-26T03:29:50;101056.09;;;19.20;100.00
19128;BME280;9696;53.686;10.094;2023-06-26T03:32:22;101063.53;;;19.25;100.00
19128;BME280;9696;53.686;10.094;2023-06-26T03:34:52;101069.06;;;19.23;100.00
19128;BME280;9696;53.686;10.094;2023-06-26T03:37:21;101059.50;;;19.29;100.00
19128;BME280;9696;53.686;10.094;2023-06-26T03:39:51;101062.63;;;19.33;100.00
19128;BME280;9696;53.686;10.094;2023-06-26T03:42:21;101065.13;;;19.34;100.00
19128;BME280;9696;53.686;10.094;2023-06-26T03:44:51;101056.78;;;19.37;100.00
19128;BME280;9696;53.686;10.094;2023-06-26T03:47:20;101057.59;;;19.38;100.00
19128;BME280;9696;53.686;10.094;2023-06-26T03:49:49;101052.44;;;19.36;100.00
19128;BME280;9696;53.686;10.094;2023-06-26T03:52:20;101049.75;;;19.44;100.00
19128;BME280;9696;53.686;10.094;2023-06-26T03:54:49;101045.59;;;19.42;100.00
19128;BME280;9696;53.686;10.094;2023-06-26T03:57:18;101035.81;;;19.42;100.00
19128;BME280;9696;53.686;10.094;2023-06-26T03:59:48;101035.25;;;19.47;100.00
19128;BME280;9696;53.686;10.094;2023-06-26T04:02:18;101034.22;;;19.48;100.00
19128;BME280;9696;53.686;10.094;2023-06-26T04:04:47;101031.31;;;19.43;100.00
19128;BME280;9696;53.686;10.094;2023-06-26T04:07:16;101024.53;;;19.55;100.00
19128;BME280;9696;53.686;10.094;2023-06-26T04:09:47;101035.25;;;19.61;100.00
19128;BME280;9696;53.686;10.094;2023-06-26T04:12:16;101031.38;;;19.64;100.00
19128;BME280;9696;53.686;10.094;2023-06-26T04:14:45;101026.28;;;19.62;100.00
19128;BME280;9696;53.686;10.094;2023-06-26T04:17:14;101020.66;;;19.72;100.00
19128;BME280;9696;53.686;10.094;2023-06-26T04:19:44;101019.81;;;19.71;100.00
19128;BME280;9696;53.686;10.094;2023-06-26T04:22:13;101021.38;;;19.81;100.00
19128;BME280;9696;53.686;10.094;2023-06-26T04:24:42;101014.88;;;19.83;100.00
19128;BME280;9696;53.686;10.094;2023-06-26T04:27:15;101007.06;;;19.82;100.00
19128;BME280;9696;53.686;10.094;2023-06-26T04:29:44;100998.88;;;19.98;100.00
19128;BME280;9696;53.686;10.094;2023-06-26T04:32:13;101001.69;;;19.96;100.00
19128;BME280;9696;53.686;10.094;2023-06-26T04:34:42;100998.47;;;20.01;100.00
19128;BME280;9696;53.686;10.094;2023-06-26T04:37:12;100991.22;;;20.09;100.00
19128;BME280;9696;53.686;10.094;2023-06-26T04:39:44;100995.41;;;20.18;100.00
19128;BME280;9696;53.686;10.094;2023-06-26T04:42:14;100988.50;;;20.24;100.00
19128;BME280;9696;53.686;10.094;2023-06-26T04:44:44;100990.09;;;20.18;100.00
19128;BME280;9696;53.686;10.094;2023-06-26T04:47:13;100984.78;;;20.40;100.00
19128;BME280;9696;53.686;10.094;2023-06-26T04:49:43;100979.47;;;20.89;100.00
19128;BME280;9696;53.686;10.094;2023-06-26T04:52:14;100976.53;;;21.05;100.00
19128;BME280;9696;53.686;10.094;2023-06-26T04:54:43;100968.53;;;21.33;100.00
19128;BME280;9696;53.686;10.094;2023-06-26T04:57:14;100958.69;;;21.40;100.00
19128;BME280;9696;53.686;10.094;2023-06-26T04:59:45;100962.66;;;21.91;100.00
19128;BME280;9696;53.686;10.094;2023-06-26T05:02:15;100962.06;;;21.61;100.00
19128;BME280;9696;53.686;10.094;2023-06-26T05:04:44;100958.47;;;21.89;100.00
19128;BME280;9696;53.686;10.094;2023-06-26T05:07:15;100956.19;;;21.73;100.00
19128;BME280;9696;53.686;10.094;2023-06-26T05:09:46;100948.31;;;22.19;100.00
19128;BME280;9696;53.686;10.094;2023-06-26T05:12:24;100943.59;;;22.40;100.00
19128;BME280;9696;53.686;10.094;2023-06-26T05:14:55;100939.31;;;22.66;100.00
19128;BME280;9696;53.686;10.094;2023-06-26T05:17:25;100939.56;;;22.71;100.00
19128;BME280;9696;53.686;10.094;2023-06-26T05:19:54;100938.25;;;22.99;100.00
19128;BME280;9696;53.686;10.094;2023-06-26T05:22:24;100931.41;;;23.23;100.00
19128;BME280;9696;53.686;10.094;2023-06-26T05:24:55;100922.47;;;22.78;100.00
19128;BME280;9696;53.686;10.094;2023-06-26T05:27:30;100923.03;;;23.07;100.00
19128;BME280;9696;53.686;10.094;2023-06-26T05:30:00;100921.34;;;23.12;100.00
19128;BME280;9696;53.686;10.094;2023-06-26T05:32:29;100917.91;;;22.85;100.00
19128;BME280;9696;53.686;10.094;2023-06-26T05:35:01;100912.72;;;23.03;100.00
19128;BME280;9696;53.686;10.094;2023-06-26T05:37:32;100910.28;;;22.95;100.00
19128;BME280;9696;53.686;10.094;2023-06-26T05:40:02;100901.53;;;23.46;100.00
19128;BME280;9696;53.686;10.094;2023-06-26T05:42:35;100900.78;;;23.13;100.00
19128;BME280;9696;53.686;10.094;2023-06-26T05:45:05;100902.13;;;23.48;100.00
19128;BME280;9696;53.686;10.094;2023-06-26T05:47:35;100894.91;;;23.86;100.00
19128;BME280;9696;53.686;10.094;2023-06-26T05:50:05;100886.78;;;23.68;100.00
19128;BME280;9696;53.686;10.094;2023-06-26T05:52:35;100893.53;;;24.09;100.00
19128;BME280;9696;53.686;10.094;2023-06-26T05:55:07;100885.78;;;24.50;100.00
19128;BME280;9696;53.686;10.094;2023-06-26T05:57:38;100891.19;;;23.50;100.00
19128;BME280;9696;53.686;10.094;2023-06-26T06:00:10;100885.06;;;24.12;100.00
19128;BME280;9696;53.686;10.094;2023-06-26T06:02:43;100880.59;;;24.30;100.00
19128;BME280;9696;53.686;10.094;2023-06-26T06:05:12;100885.41;;;24.22;100.00
19128;BME280;9696;53.686;10.094;2023-06-26T06:07:41;100882.81;;;24.40;100.00
19128;BME280;9696;53.686;10.094;2023-06-26T06:10:10;100875.03;;;24.01;100.00
19128;BME280;9696;53.686;10.094;2023-06-26T06:12:41;100879.00;;;24.72;100.00
19128;BME280;9696;53.686;10.094;2023-06-26T06:15:10;100871.91;;;24.78;100.00
19128;BME280;9696;53.686;10.094;2023-06-26T06:17:40;100874.34;;;24.86;100.00
19128;BME280;9696;53.686;10.094;2023-06-26T06:20:10;100874.94;;;24.88;100.00
19128;BME280;9696;53.686;10.094;2023-06-26T06:22:39;100868.78;;;24.81;100.00
19128;BME280;9696;53.686;10.094;2023-06-26T06:25:09;100867.09;;;24.86;100.00
19128;BME280;9696;53.686;10.094;2023-06-26T06:27:38;100869.34;;;24.90;100.00
19128;BME280;9696;53.686;10.094;2023-06-26T06:30:10;100869.69;;;25.29;100.00
19128;BME280;9696;53.686;10.094;2023-06-26T06:32:39;100866.06;;;25.24;100.00
19128;BME280;9696;53.686;10.094;2023-06-26T06:35:09;100852.25;;;24.84;100.00
19128;BME280;9696;53.686;10.094;2023-06-26T06:37:38;100857.47;;;24.97;100.00
19128;BME280;9696;53.686;10.094;2023-06-26T06:40:10;100849.31;;;25.58;100.00
19128;BME280;9696;53.686;10.094;2023-06-26T06:42:39;100842.84;;;25.77;100.00
19128;BME280;9696;53.686;10.094;2023-06-26T06:45:10;100847.75;;;25.80;100.00
19128;BME280;9696;53.686;10.094;2023-06-26T06:47:39;100837.78;;;25.69;100.00
19128;BME280;9696;53.686;10.094;2023-06-26T06:50:08;100842.00;;;25.77;100.00
19128;BME280;9696;53.686;10.094;2023-06-26T06:52:38;100828.31;;;26.43;100.00
19128;BME280;9696;53.686;10.094;2023-06-26T06:55:09;100825.03;;;26.06;100.00
19128;BME280;9696;53.686;10.094;2023-06-26T06:57:39;100823.06;;;25.72;100.00
19128;BME280;9696;53.686;10.094;2023-06-26T07:00:11;100827.00;;;25.58;100.00
19128;BME280;9696;53.686;10.094;2023-06-26T07:02:43;100825.66;;;25.78;100.00
19128;BME280;9696;53.686;10.094;2023-06-26T07:05:13;100821.19;;;25.43;100.00
19128;BME280;9696;53.686;10.094;2023-06-26T07:07:42;100813.53;;;25.88;100.00
19128;BME280;9696;53.686;10.094;2023-06-26T07:10:13;100801.69;;;26.42;100.00
19128;BME280;9696;53.686;10.094;2023-06-26T07:12:42;100802.34;;;26.72;100.00
19128;BME280;9696;53.686;10.094;2023-06-26T07:15:14;100807.88;;;26.42;100.00
19128;BME280;9696;53.686;10.094;2023-06-26T07:17:43;100794.59;;;26.76;100.00
19128;BME280;9696;53.686;10.094;2023-06-26T07:20:12;100795.28;;;26.83;100.00
19128;BME280;9696;53.686;10.094;2023-06-26T07:22:43;100790.84;;;26.88;100.00
19128;BME280;9696;53.686;10.094;2023-06-26T07:25:14;100789.38;;;26.57;100.00
19128;BME280;9696;53.686;10.094;2023-06-26T07:27:43;100802.34;;;26.72;100.00
19128;BME280;9696;53.686;10.094;2023-06-26T07:30:14;100786.72;;;26.34;100.00
19128;BME280;9696;53.686;10.094;2023-06-26T07:32:45;100797.88;;;26.78;100.00
19128;BME280;9696;53.686;10.094;2023-06-26T07:35:15;100785.69;;;26.75;100.00
19128;BME280;9696;53.686;10.094;2023-06-26T07:37:44;100786.88;;;27.19;100.00
19128;BME280;9696;53.686;10.094;2023-06-26T07:40:14;100786.19;;;27.52;100.00
19128;BME280;9696;53.686;10.094;2023-06-26T07:42:45;100789.53;;;27.31;100.00
19128;BME280;9696;53.686;10.094;2023-06-26T07:45:17;100794.78;;;27.09;100.00
19128;BME280;9696;53.686;10.094;2023-06-26T07:47:46;100793.03;;;27.31;100.00
19128;BME280;9696;53.686;10.094;2023-06-26T07:50:15;100795.13;;;27.86;100.00
19128;BME280;9696;53.686;10.094;2023-06-26T07:52:49;100793.81;;;27.43;100.00
19128;BME280;9696;53.686;10.094;2023-06-26T07:55:20;100782.88;;;26.93;100.00
19128;BME280;9696;53.686;10.094;2023-06-26T07:57:49;100787.03;;;27.41;100.00
19128;BME280;9696;53.686;10.094;2023-06-26T08:00:21;100787.78;;;28.15;100.00
19128;BME280;9696;53.686;10.094;2023-06-26T08:02:53;100797.44;;;27.77;100.00
19128;BME280;9696;53.686;10.094;2023-06-26T08:05:22;100788.59;;;27.37;100.00
19128;BME280;9696;53.686;10.094;2023-06-26T08:07:51;100793.06;;;26.91;100.00
19128;BME280;9696;53.686;10.094;2023-06-26T08:10:21;100784.06;;;27.54;100.00
19128;BME280;9696;53.686;10.094;2023-06-26T08:12:50;100786.44;;;26.47;100.00
19128;BME280;9696;53.686;10.094;2023-06-26T08:15:21;100771.03;;;27.06;100.00
19128;BME280;9696;53.686;10.094;2023-06-26T08:17:51;100766.91;;;27.32;100.00
19128;BME280;9696;53.686;10.094;2023-06-26T08:20:20;100774.53;;;28.13;100.00
19128;BME280;9696;53.686;10.094;2023-06-26T08:22:50;100757.97;;;28.43;100.00
19128;BME280;9696;53.686;10.094;2023-06-26T08:25:21;100755.91;;;27.95;100.00
19128;BME280;9696;53.686;10.094;2023-06-26T08:27:50;100759.16;;;27.63;100.00
19128;BME280;9696;53.686;10.094;2023-06-26T08:30:23;100745.09;;;27.95;100.00
19128;BME280;9696;53.686;10.094;2023-06-26T08:32:56;100746.91;;;28.83;100.00
19128;BME280;9696;53.686;10.094;2023-06-26T08:35:25;100751.16;;;28.02;100.00
19128;BME280;9696;53.686;10.094;2023-06-26T08:37:54;100746.47;;;28.52;100.00
19128;BME280;9696;53.686;10.094;2023-06-26T08:40:24;100745.84;;;27.57;100.00
19128;BME280;9696;53.686;10.094;2023-06-26T08:42:54;100736.19;;;27.16;100.00
19128;BME280;9696;53.686;10.094;2023-06-26T08:45:25;100739.28;;;27.08;100.00
19128;BME280;9696;53.686;10.094;2023-06-26T08:47:59;100742.91;;;27.58;100.00
19128;BME280;9696;53.686;10.094;2023-06-26T08:50:30;100743.59;;;27.37;100.00
19128;BME280;9696;53.686;10.094;2023-06-26T08:53:07;100746.09;;;27.27;100.00
19128;BME280;9696;53.686;10.094;2023-06-26T08:55:42;100766.97;;;27.20;100.00
19128;BME280;9696;53.686;10.094;2023-06-26T08:58:11;100763.88;;;27.00;100.00
19128;BME280;9696;53.686;10.094;2023-06-26T09:00:42;100776.66;;;27.33;100.00
19128;BME280;9696;53.686;10.094;2023-06-26T09:03:13;100774.56;;;27.23;100.00
19128;BME280;9696;53.686;10.094;2023-06-26T09:05:43;100779.69;;;27.64;100.00
19128;BME280;9696;53.686;10.094;2023-06-26T09:08:12;100785.84;;;28.10;100.00
19128;BME280;9696;53.686;10.094;2023-06-26T09:10:42;100784.03;;;28.54;100.00
19128;BME280;9696;53.686;10.094;2023-06-26T09:13:13;100809.66;;;28.51;100.00
19128;BME280;9696;53.686;10.094;2023-06-26T09:15:57;100803.38;;;28.46;100.00
19128;BME280;9696;53.686;10.094;2023-06-26T09:18:28;100807.50;;;28.70;100.00
19128;BME280;9696;53.686;10.094;2023-06-26T09:20:57;100819.41;;;27.69;100.00
19128;BME280;9696;53.686;10.094;2023-06-26T09:23:27;100817.19;;;27.26;100.00
19128;BME280;9696;53.686;10.094;2023-06-26T09:25:56;100827.38;;;27.64;100.00
19128;BME280;9696;53.686;10.094;2023-06-26T09:28:26;100830.75;;;27.03;100.00
19128;BME280;9696;53.686;10.094;2023-06-26T09:31:01;100841.63;;;27.08;100.00
19128;BME280;9696;53.686;10.094;2023-06-26T09:33:35;100843.94;;;27.16;100.00
19128;BME280;9696;53.686;10.094;2023-06-26T09:36:09;100843.19;;;26.57;100.00
19128;BME280;9696;53.686;10.094;2023-06-26T09:38:47;100846.47;;;26.48;100.00
19128;BME280;9696;53.686;10.094;2023-06-26T09:41:16;100849.75;;;26.38;100.00
19128;BME280;9696;53.686;10.094;2023-06-26T09:43:46;100857.13;;;26.54;100.00
19128;BME280;9696;53.686;10.094;2023-06-26T09:46:24;100874.31;;;25.59;100.00
19128;BME280;9696;53.686;10.094;2023-06-26T09:49:02;100884.09;;;24.56;100.00
19128;BME280;9696;53.686;10.094;2023-06-26T09:51:33;100906.00;;;24.28;100.00
19128;BME280;9696;53.686;10.094;2023-06-26T09:54:05;100901.47;;;24.28;100.00
19128;BME280;9696;53.686;10.094;2023-06-26T09:56:35;100910.97;;;23.93;100.00
19128;BME280;9696;53.686;10.094;2023-06-26T09:59:05;100903.38;;;23.83;100.00
19128;BME280;9696;53.686;10.094;2023-06-26T10:01:41;100910.97;;;23.86;100.00
19128;BME280;9696;53.686;10.094;2023-06-26T10:04:11;100909.84;;;23.69;100.00
19128;BME280;9696;53.686;10.094;2023-06-26T10:06:44;100920.66;;;23.50;100.00
19128;BME280;9696;53.686;10.094;2023-06-26T10:09:16;100917.69;;;23.64;100.00
19128;BME280;9696;53.686;10.094;2023-06-26T10:11:51;100920.44;;;23.58;100.00
19128;BME280;9696;53.686;10.094;2023-06-26T10:14:25;100930.06;;;23.65;100.00
19128;BME280;9696;53.686;10.094;2023-06-26T10:16:58;100925.50;;;23.72;100.00
19128;BME280;9696;53.686;10.094;2023-06-26T10:19:29;100908.25;;;23.55;100.00
19128;BME280;9696;53.686;10.094;2023-06-26T10:21:59;100921.13;;;23.27;100.00
19128;BME280;9696;53.686;10.094;2023-06-26T10:24:35;100940.34;;;22.91;100.00
19128;BME280;9696;53.686;10.094;2023-06-26T10:27:10;100960.88;;;22.18;100.00
19128;BME280;9696;53.686;10.094;2023-06-26T10:29:44;100977.81;;;21.91;100.00
19128;BME280;9696;53.686;10.094;2023-06-26T10:32:17;101013.19;;;21.52;100.00
19128;BME280;9696;53.686;10.094;2023-06-26T10:34:48;101028.88;;;21.34;100.00
19128;BME280;9696;53.686;10.094;2023-06-26T10:37:17;101049.81;;;21.09;100.00
19128;BME280;9696;53.686;10.094;2023-06-26T10:39:47;101074.66;;;20.67;100.00
19128;BME280;9696;53.686;10.094;2023-06-26T10:42:18;101085.16;;;20.68;100.00
19128;BME280;9696;53.686;10.094;2023-06-26T10:44:49;101097.94;;;20.22;100.00
19128;BME280;9696;53.686;10.094;2023-06-26T10:47:32;101117.41;;;20.08;100.00
19128;BME280;9696;53.686;10.094;2023-06-26T10:50:22;101116.41;;;19.80;100.00
19128;BME280;9696;53.686;10.094;2023-06-26T10:53:14;101130.63;;;19.87;100.00
19128;BME280;9696;53.686;10.094;2023-06-26T10:55:49;101130.47;;;19.89;100.00
19128;BME280;9696;53.686;10.094;2023-06-26T10:58:31;101125.13;;;20.03;100.00
19128;BME280;9696;53.686;10.094;2023-06-26T11:01:21;101134.69;;;20.42;100.00
19128;BME280;9696;53.686;10.094;2023-06-26T11:04:07;101136.69;;;20.25;100.00
19128;BME280;9696;53.686;10.094;2023-06-26T11:06:37;101140.25;;;20.47;100.00
19128;BME280;9696;53.686;10.094;2023-06-26T11:09:09;101155.53;;;20.53;100.00
19128;BME280;9696;53.686;10.094;2023-06-26T11:11:58;101156.47;;;20.31;100.00
19128;BME280;9696;53.686;10.094;2023-06-26T11:14:33;101156.06;;;20.19;100.00
19128;BME280;9696;53.686;10.094;2023-06-26T11:17:03;101149.41;;;21.58;100.00
19128;BME280;9696;53.686;10.094;2023-06-26T11:19:35;101134.59;;;22.25;100.00
19128;BME280;9696;53.686;10.094;2023-06-26T11:22:05;101117.38;;;22.27;100.00
19128;BME280;9696;53.686;10.094;2023-06-26T11:24:35;101104.41;;;21.55;100.00
19128;BME280;9696;53.686;10.094;2023-06-26T11:27:05;101113.47;;;21.33;100.00
19128;BME280;9696;53.686;10.094;2023-06-26T11:29:36;101093.75;;;22.44;100.00
19128;BME280;9696;53.686;10.094;2023-06-26T11:32:06;101080.53;;;23.10;100.00
19128;BME280;9696;53.686;10.094;2023-06-26T11:34:37;101068.16;;;23.35;100.00
19128;BME280;9696;53.686;10.094;2023-06-26T11:37:06;101061.56;;;23.31;100.00
19128;BME280;9696;53.686;10.094;2023-06-26T11:39:36;101053.13;;;23.47;100.00
19128;BME280;9696;53.686;10.094;2023-06-26T11:42:06;101056.88;;;24.04;100.00
19128;BME280;9696;53.686;10.094;2023-06-26T11:44:40;101061.19;;;24.56;100.00
19128;BME280;9696;53.686;10.094;2023-06-26T11:47:14;101069.59;;;23.24;100.00
19128;BME280;9696;53.686;10.094;2023-06-26T11:49:45;101071.78;;;23.93;100.00
19128;BME280;9696;53.686;10.094;2023-06-26T11:52:15;101089.97;;;23.65;100.00
19128;BME280;9696;53.686;10.094;2023-06-26T11:54:45;101107.31;;;23.29;100.00
19128;BME280;9696;53.686;10.094;2023-06-26T11:57:15;101098.59;;;22.14;100.00
19128;BME280;9696;53.686;10.094;2023-06-26T11:59:49;101102.34;;;22.33;100.00
19128;BME280;9696;53.686;10.094;2023-06-26T12:02:18;101092.22;;;22.76;100.00
19128;BME280;9696;53.686;10.094;2023-06-26T12:04:51;101083.59;;;23.39;100.00
19128;BME280;9696;53.686;10.094;2023-06-26T12:07:21;101089.69;;;22.54;100.00
19128;BME280;9696;53.686;10.094;2023-06-26T12:09:51;101092.63;;;22.73;100.00
19128;BME280;9696;53.686;10.094;2023-06-26T12:12:22;101089.59;;;23.41;100.00
19128;BME280;9696;53.686;10.094;2023-06-26T12:14:52;101095.47;;;23.96;100.00
19128;BME280;9696;53.686;10.094;2023-06-26T12:17:23;101073.94;;;23.58;100.00
19128;BME280;9696;53.686;10.094;2023-06-26T12:19:54;101096.31;;;23.90;100.00
19128;BME280;9696;53.686;10.094;2023-06-26T12:22:23;101086.28;;;23.53;100.00
19128;BME280;9696;53.686;10.094;2023-06-26T12:24:57;101101.50;;;23.72;100.00
19128;BME280;9696;53.686;10.094;2023-06-26T12:27:26;101095.03;;;24.06;100.00
19128;BME280;9696;53.686;10.094;2023-06-26T12:29:55;101084.28;;;25.19;100.00
19128;BME280;9696;53.686;10.094;2023-06-26T12:32:25;101097.03;;;24.99;100.00
19128;BME280;9696;53.686;10.094;2023-06-26T12:34:57;101095.38;;;24.29;100.00
19128;BME280;9696;53.686;10.094;2023-06-26T12:37:26;101101.03;;;22.63;100.00
19128;BME280;9696;53.686;10.094;2023-06-26T12:39:57;101114.28;;;23.24;100.00
19128;BME280;9696;53.686;10.094;2023-06-26T12:42:27;101099.84;;;23.71;100.00
19128;BME280;9696;53.686;10.094;2023-06-26T12:44:57;101113.59;;;23.94;100.00
19128;BME280;9696;53.686;10.094;2023-06-26T12:47:27;101121.75;;;24.76;100.00
19128;BME280;9696;53.686;10.094;2023-06-26T12:49:58;101107.38;;;24.58;100.00
19128;BME280;9696;53.686;10.094;2023-06-26T12:52:27;101106.50;;;24.32;100.00
19128;BME280;9696;53.686;10.094;2023-06-26T12:54:56;101103.19;;;23.66;100.00
19128;BME280;9696;53.686;10.094;2023-06-26T12:57:26;101109.91;;;24.53;100.00
19128;BME280;9696;53.686;10.094;2023-06-26T12:59:59;101115.72;;;24.88;100.00